sensor_id;sensor_type;location;lat;lon;timestamp;P1;durP1;ratioP1;P2;durP2;ratioP2
14858;SDS011;7521;51.700;6.874;2023-04-29T00:02:34;75.87;;;41.70;;
14858;SDS011;7521;51.700;6.874;2023-04-29T00:05:39;73.87;;;41.67;;
14858;SDS011;7521;51.700;6.874;2023-04-29T00:08:44;74.90;;;42.47;;
14858;SDS011;7521;51.700;6.874;2023-04-29T00:11:50;70.22;;;42.25;;
14858;SDS011;7521;51.700;6.874;2023-04-29T00:14:55;72.23;;;43.17;;
14858;SDS011;7521;51.700;6.874;2023-04-29T00:18:01;75.93;;;44.23;;
14858;SDS011;7521;51.700;6.874;2023-04-29T00:21:06;77.53;;;44.95;;
14858;SDS011;7521;51.700;6.874;2023-04-29T00:24:11;87.33;;;47.43;;
14858;SDS011;7521;51.700;6.874;2023-04-29T00:27:16;110.28;;;52.53;;
14858;SDS011;7521;51.700;6.874;2023-04-29T00:30:21;120.63;;;54.47;;
14858;SDS011;7521;51.700;6.874;2023-04-29T00:33:26;124.25;;;56.40;;
14858;SDS011;7521;51.700;6.874;2023-04-29T00:36:32;122.40;;;54.40;;
14858;SDS011;7521;51.700;6.874;2023-04-29T00:39:37;112.93;;;50.47;;
14858;SDS011;7521;51.700;6.874;2023-04-29T00:42:42;110.18;;;50.25;;
14858;SDS011;7521;51.700;6.874;2023-04-29T00:45:47;105.30;;;49.80;;
14858;SDS011;7521;51.700;6.874;2023-04-29T00:48:52;85.90;;;45.97;;
14858;SDS011;7521;51.700;6.874;2023-04-29T00:51:58;94.45;;;47.88;;
14858;SDS011;7521;51.700;6.874;2023-04-29T00:55:03;92.00;;;45.43;;
14858;SDS011;7521;51.700;6.874;2023-04-29T00:58:09;91.77;;;46.30;;
14858;SDS011;7521;51.700;6.874;2023-04-29T01:01:15;88.63;;;45.47;;
14858;SDS011;7521;51.700;6.874;2023-04-29T01:04:20;96.50;;;48.10;;
14858;SDS011;7521;51.700;6.874;2023-04-29T01:07:29;83.97;;;43.27;;
14858;SDS011;7521;51.700;6.874;2023-04-29T01:10:40;78.83;;;43.53;;
14858;SDS011;7521;51.700;6.874;2023-04-29T01:13:57;90.63;;;44.97;;
14858;SDS011;7521;51.700;6.874;2023-04-29T01:17:04;71.33;;;40.23;;
14858;SDS011;7521;51.700;6.874;2023-04-29T01:20:10;73.63;;;41.67;;
14858;SDS011;7521;51.700;6.874;2023-04-29T01:23:16;72.50;;;41.63;;
14858;SDS011;7521;51.700;6.874;2023-04-29T01:26:21;68.30;;;38.30;;
14858;SDS011;7521;51.700;6.874;2023-04-29T01:29:39;66.60;;;37.87;;
14858;SDS011;7521;51.700;6.874;2023-04-29T01:42:46;57.53;;;34.37;;
14858;SDS011;7521;51.700;6.874;2023-04-29T01:45:52;64.40;;;35.40;;
14858;SDS011;7521;51.700;6.874;2023-04-29T01:48:57;61.77;;;35.67;;
14858;SDS011;7521;51.700;6.874;2023-04-29T01:52:03;59.55;;;35.45;;
14858;SDS011;7521;51.700;6.874;2023-04-29T01:55:09;57.20;;;34.07;;
14858;SDS011;7521;51.700;6.874;2023-04-29T01:58:15;54.07;;;33.13;;
14858;SDS011;7521;51.700;6.874;2023-04-29T02:01:20;57.20;;;34.40;;
14858;SDS011;7521;51.700;6.874;2023-04-29T02:04:25;56.33;;;33.90;;
14858;SDS011;7521;51.700;6.874;2023-04-29T02:07:32;57.67;;;33.47;;
14858;SDS011;7521;51.700;6.874;2023-04-29T02:10:37;53.78;;;31.42;;
14858;SDS011;7521;51.700;6.874;2023-04-29T02:13:42;59.27;;;31.07;;
14858;SDS011;7521;51.700;6.874;2023-04-29T02:16:47;52.42;;;31.25;;
14858;SDS011;7521;51.700;6.874;2023-04-29T02:19:53;53.25;;;31.00;;
14858;SDS011;7521;51.700;6.874;2023-04-29T02:22:59;55.60;;;32.30;;
14858;SDS011;7521;51.700;6.874;2023-04-29T02:26:04;49.60;;;28.85;;
14858;SDS011;7521;51.700;6.874;2023-04-29T02:29:10;49.67;;;30.40;;
14858;SDS011;7521;51.700;6.874;2023-04-29T02:32:15;52.88;;;30.08;;
14858;SDS011;7521;51.700;6.874;2023-04-29T02:35:23;48.10;;;28.80;;
14858;SDS011;7521;51.700;6.874;2023-04-29T02:38:29;51.60;;;30.65;;
14858;SDS011;7521;51.700;6.874;2023-04-29T02:41:34;56.03;;;30.97;;
14858;SDS011;7521;51.700;6.874;2023-04-29T02:44:39;52.83;;;29.92;;
14858;SDS011;7521;51.700;6.874;2023-04-29T02:47:45;48.90;;;30.27;;
14858;SDS011;7521;51.700;6.874;2023-04-29T02:50:50;48.07;;;29.40;;
14858;SDS011;7521;51.700;6.874;2023-04-29T02:53:56;50.93;;;30.07;;
14858;SDS011;7521;51.700;6.874;2023-04-29T02:57:02;47.03;;;29.57;;
14858;SDS011;7521;51.700;6.874;2023-04-29T03:00:07;51.43;;;29.57;;
14858;SDS011;7521;51.700;6.874;2023-04-29T03:03:13;54.83;;;29.67;;
14858;SDS011;7521;51.700;6.874;2023-04-29T03:06:19;45.40;;;28.10;;
14858;SDS011;7521;51.700;6.874;2023-04-29T03:09:24;48.33;;;29.63;;
14858;SDS011;7521;51.700;6.874;2023-04-29T03:12:30;47.77;;;28.97;;
14858;SDS011;7521;51.700;6.874;2023-04-29T03:15:35;47.80;;;28.93;;
14858;SDS011;7521;51.700;6.874;2023-04-29T03:18:41;50.27;;;30.17;;
14858;SDS011;7521;51.700;6.874;2023-04-29T03:21:46;46.50;;;30.10;;
14858;SDS011;7521;51.700;6.874;2023-04-29T03:24:51;51.15;;;30.90;;
14858;SDS011;7521;51.700;6.874;2023-04-29T03:27:56;51.15;;;30.42;;
14858;SDS011;7521;51.700;6.874;2023-04-29T03:31:02;52.17;;;30.73;;
14858;SDS011;7521;51.700;6.874;2023-04-29T03:34:07;55.40;;;31.73;;
14858;SDS011;7521;51.700;6.874;2023-04-29T03:37:12;50.63;;;31.73;;
14858;SDS011;7521;51.700;6.874;2023-04-29T03:40:17;52.50;;;31.43;;
14858;SDS011;7521;51.700;6.874;2023-04-29T03:43:22;47.27;;;31.53;;
14858;SDS011;7521;51.700;6.874;2023-04-29T03:46:28;48.45;;;31.02;;
14858;SDS011;7521;51.700;6.874;2023-04-29T03:49:33;54.00;;;31.80;;
14858;SDS011;7521;51.700;6.874;2023-04-29T03:52:38;52.53;;;32.60;;
14858;SDS011;7521;51.700;6.874;2023-04-29T03:55:43;48.23;;;30.90;;
14858;SDS011;7521;51.700;6.874;2023-04-29T03:58:48;51.00;;;31.10;;
14858;SDS011;7521;51.700;6.874;2023-04-29T04:01:54;48.43;;;30.70;;
14858;SDS011;7521;51.700;6.874;2023-04-29T04:04:59;48.40;;;31.10;;
14858;SDS011;7521;51.700;6.874;2023-04-29T04:08:04;53.00;;;32.10;;
14858;SDS011;7521;51.700;6.874;2023-04-29T04:11:10;50.03;;;31.60;;
14858;SDS011;7521;51.700;6.874;2023-04-29T04:14:16;48.20;;;30.67;;
14858;SDS011;7521;51.700;6.874;2023-04-29T04:17:22;46.87;;;30.03;;
14858;SDS011;7521;51.700;6.874;2023-04-29T04:20:28;46.47;;;31.08;;
14858;SDS011;7521;51.700;6.874;2023-04-29T04:23:33;47.53;;;30.42;;
14858;SDS011;7521;51.700;6.874;2023-04-29T04:26:38;48.33;;;29.50;;
14858;SDS011;7521;51.700;6.874;2023-04-29T04:29:43;44.80;;;30.30;;
14858;SDS011;7521;51.700;6.874;2023-04-29T04:32:48;51.97;;;31.17;;
14858;SDS011;7521;51.700;6.874;2023-04-29T04:35:53;48.47;;;30.40;;
14858;SDS011;7521;51.700;6.874;2023-04-29T04:38:59;44.63;;;30.67;;
14858;SDS011;7521;51.700;6.874;2023-04-29T04:42:04;45.10;;;29.23;;
14858;SDS011;7521;51.700;6.874;2023-04-29T04:45:09;46.67;;;30.40;;
14858;SDS011;7521;51.700;6.874;2023-04-29T04:48:15;42.63;;;29.60;;
14858;SDS011;7521;51.700;6.874;2023-04-29T04:51:20;44.73;;;29.80;;
14858;SDS011;7521;51.700;6.874;2023-04-29T04:54:25;45.40;;;30.43;;
14858;SDS011;7521;51.700;6.874;2023-04-29T04:57:31;44.00;;;29.70;;
14858;SDS011;7521;51.700;6.874;2023-04-29T05:00:36;40.72;;;28.02;;
14858;SDS011;7521;51.700;6.874;2023-04-29T05:03:41;41.50;;;28.03;;
14858;SDS011;7521;51.700;6.874;2023-04-29T05:06:46;41.27;;;28.30;;
14858;SDS011;7521;51.700;6.874;2023-04-29T05:09:51;46.07;;;29.27;;
14858;SDS011;7521;51.700;6.874;2023-04-29T05:12:57;44.72;;;28.95;;
14858;SDS011;7521;51.700;6.874;2023-04-29T05:16:02;38.45;;;27.95;;
14858;SDS011;7521;51.700;6.874;2023-04-29T05:19:08;38.80;;;27.67;;
14858;SDS011;7521;51.700;6.874;2023-04-29T05:22:14;38.58;;;27.48;;
14858;SDS011;7521;51.700;6.874;2023-04-29T05:25:19;36.20;;;26.27;;
14858;SDS011;7521;51.700;6.874;2023-04-29T05:28:24;34.33;;;26.63;;
14858;SDS011;7521;51.700;6.874;2023-04-29T05:31:30;35.70;;;27.43;;
14858;SDS011;7521;51.700;6.874;2023-04-29T05:34:36;39.67;;;26.17;;
14858;SDS011;7521;51.700;6.874;2023-04-29T05:37:41;40.00;;;26.37;;
14858;SDS011;7521;51.700;6.874;2023-04-29T05:40:46;35.53;;;25.25;;
14858;SDS011;7521;51.700;6.874;2023-04-29T05:43:54;33.73;;;24.93;;
14858;SDS011;7521;51.700;6.874;2023-04-29T05:46:59;34.15;;;25.35;;
14858;SDS011;7521;51.700;6.874;2023-04-29T05:50:04;35.30;;;25.27;;
14858;SDS011;7521;51.700;6.874;2023-04-29T05:53:09;33.53;;;24.87;;
14858;SDS011;7521;51.700;6.874;2023-04-29T05:56:15;31.23;;;24.40;;
14858;SDS011;7521;51.700;6.874;2023-04-29T05:59:20;34.87;;;24.37;;
14858;SDS011;7521;51.700;6.874;2023-04-29T06:02:26;35.65;;;25.00;;
14858;SDS011;7521;51.700;6.874;2023-04-29T06:05:31;34.37;;;25.30;;
14858;SDS011;7521;51.700;6.874;2023-04-29T06:08:36;36.53;;;24.70;;
14858;SDS011;7521;51.700;6.874;2023-04-29T06:11:41;33.80;;;24.90;;
14858;SDS011;7521;51.700;6.874;2023-04-29T06:14:48;38.40;;;25.70;;
14858;SDS011;7521;51.700;6.874;2023-04-29T06:17:53;35.97;;;26.17;;
14858;SDS011;7521;51.700;6.874;2023-04-29T06:20:58;42.42;;;25.98;;
14858;SDS011;7521;51.700;6.874;2023-04-29T06:24:03;43.83;;;28.88;;
14858;SDS011;7521;51.700;6.874;2023-04-29T06:27:08;42.43;;;30.97;;
14858;SDS011;7521;51.700;6.874;2023-04-29T06:30:14;39.30;;;28.30;;
14858;SDS011;7521;51.700;6.874;2023-04-29T06:33:19;43.60;;;28.53;;
14858;SDS011;7521;51.700;6.874;2023-04-29T06:36:24;45.80;;;28.40;;
14858;SDS011;7521;51.700;6.874;2023-04-29T06:39:31;44.33;;;28.10;;
14858;SDS011;7521;51.700;6.874;2023-04-29T06:42:36;44.73;;;27.93;;
14858;SDS011;7521;51.700;6.874;2023-04-29T06:45:44;40.87;;;27.57;;
14858;SDS011;7521;51.700;6.874;2023-04-29T06:48:50;42.33;;;29.10;;
14858;SDS011;7521;51.700;6.874;2023-04-29T06:51:55;44.75;;;29.33;;
14858;SDS011;7521;51.700;6.874;2023-04-29T06:55:00;46.58;;;30.58;;
14858;SDS011;7521;51.700;6.874;2023-04-29T06:58:06;39.47;;;28.63;;
14858;SDS011;7521;51.700;6.874;2023-04-29T07:01:11;44.03;;;29.03;;
14858;SDS011;7521;51.700;6.874;2023-04-29T07:04:16;46.63;;;29.33;;
14858;SDS011;7521;51.700;6.874;2023-04-29T07:07:21;47.90;;;29.30;;
14858;SDS011;7521;51.700;6.874;2023-04-29T07:10:27;42.47;;;29.70;;
14858;SDS011;7521;51.700;6.874;2023-04-29T07:13:32;39.78;;;28.67;;
14858;SDS011;7521;51.700;6.874;2023-04-29T07:16:37;42.17;;;29.77;;
14858;SDS011;7521;51.700;6.874;2023-04-29T07:19:42;52.05;;;31.17;;
14858;SDS011;7521;51.700;6.874;2023-04-29T07:22:47;47.78;;;29.73;;
14858;SDS011;7521;51.700;6.874;2023-04-29T07:25:52;50.63;;;30.50;;
14858;SDS011;7521;51.700;6.874;2023-04-29T07:28:58;47.47;;;29.53;;
14858;SDS011;7521;51.700;6.874;2023-04-29T07:32:03;47.10;;;29.88;;
14858;SDS011;7521;51.700;6.874;2023-04-29T07:35:08;45.33;;;29.60;;
14858;SDS011;7521;51.700;6.874;2023-04-29T07:38:13;47.80;;;29.73;;
14858;SDS011;7521;51.700;6.874;2023-04-29T07:41:18;42.77;;;28.47;;
14858;SDS011;7521;51.700;6.874;2023-04-29T07:44:24;42.57;;;28.83;;
14858;SDS011;7521;51.700;6.874;2023-04-29T07:47:29;38.28;;;28.10;;
14858;SDS011;7521;51.700;6.874;2023-04-29T07:50:34;43.75;;;29.30;;
14858;SDS011;7521;51.700;6.874;2023-04-29T07:53:40;44.53;;;28.23;;
14858;SDS011;7521;51.700;6.874;2023-04-29T07:56:46;42.57;;;28.73;;
14858;SDS011;7521;51.700;6.874;2023-04-29T07:59:54;40.43;;;27.20;;
14858;SDS011;7521;51.700;6.874;2023-04-29T08:02:59;45.60;;;28.60;;
14858;SDS011;7521;51.700;6.874;2023-04-29T08:06:04;40.60;;;26.42;;
14858;SDS011;7521;51.700;6.874;2023-04-29T08:09:10;38.13;;;27.83;;
14858;SDS011;7521;51.700;6.874;2023-04-29T08:12:15;45.33;;;28.03;;
14858;SDS011;7521;51.700;6.874;2023-04-29T08:15:20;39.53;;;27.10;;
14858;SDS011;7521;51.700;6.874;2023-04-29T08:18:26;41.53;;;27.20;;
14858;SDS011;7521;51.700;6.874;2023-04-29T08:21:31;44.63;;;27.30;;
14858;SDS011;7521;51.700;6.874;2023-04-29T08:24:37;40.43;;;25.33;;
14858;SDS011;7521;51.700;6.874;2023-04-29T08:27:42;37.80;;;26.83;;
14858;SDS011;7521;51.700;6.874;2023-04-29T08:30:49;38.60;;;27.80;;
14858;SDS011;7521;51.700;6.874;2023-04-29T08:33:55;34.77;;;25.83;;
14858;SDS011;7521;51.700;6.874;2023-04-29T08:37:02;44.03;;;26.33;;
14858;SDS011;7521;51.700;6.874;2023-04-29T08:40:07;36.93;;;25.13;;
14858;SDS011;7521;51.700;6.874;2023-04-29T08:43:13;37.93;;;26.23;;
14858;SDS011;7521;51.700;6.874;2023-04-29T08:46:22;35.37;;;25.73;;
14858;SDS011;7521;51.700;6.874;2023-04-29T08:49:28;37.67;;;25.03;;
14858;SDS011;7521;51.700;6.874;2023-04-29T08:52:33;36.70;;;27.23;;
14858;SDS011;7521;51.700;6.874;2023-04-29T08:55:40;35.27;;;26.27;;
14858;SDS011;7521;51.700;6.874;2023-04-29T08:58:47;34.97;;;24.27;;
14858;SDS011;7521;51.700;6.874;2023-04-29T09:01:55;37.47;;;23.83;;
14858;SDS011;7521;51.700;6.874;2023-04-29T09:05:05;34.80;;;24.53;;
14858;SDS011;7521;51.700;6.874;2023-04-29T09:08:12;32.83;;;24.03;;
14858;SDS011;7521;51.700;6.874;2023-04-29T09:11:18;31.63;;;24.77;;
14858;SDS011;7521;51.700;6.874;2023-04-29T09:14:24;27.33;;;23.03;;
14858;SDS011;7521;51.700;6.874;2023-04-29T09:20:46;33.90;;;23.13;;
14858;SDS011;7521;51.700;6.874;2023-04-29T09:23:53;28.92;;;24.10;;
14858;SDS011;7521;51.700;6.874;2023-04-29T09:26:58;29.67;;;22.77;;
14858;SDS011;7521;51.700;6.874;2023-04-29T09:30:04;35.23;;;24.13;;
14858;SDS011;7521;51.700;6.874;2023-04-29T09:33:09;30.20;;;22.73;;
14858;SDS011;7521;51.700;6.874;2023-04-29T09:36:28;28.50;;;23.87;;
14858;SDS011;7521;51.700;6.874;2023-04-29T09:39:39;33.17;;;23.83;;
14858;SDS011;7521;51.700;6.874;2023-04-29T09:42:44;30.60;;;22.63;;
14858;SDS011;7521;51.700;6.874;2023-04-29T09:45:49;29.00;;;21.67;;
14858;SDS011;7521;51.700;6.874;2023-04-29T09:48:55;30.37;;;21.70;;
14858;SDS011;7521;51.700;6.874;2023-04-29T09:52:02;27.23;;;21.90;;
14858;SDS011;7521;51.700;6.874;2023-04-29T09:55:08;27.57;;;21.30;;
14858;SDS011;7521;51.700;6.874;2023-04-29T09:58:27;26.53;;;20.80;;
14858;SDS011;7521;51.700;6.874;2023-04-29T10:01:34;27.83;;;19.90;;
14858;SDS011;7521;51.700;6.874;2023-04-29T10:04:39;25.17;;;20.17;;
14858;SDS011;7521;51.700;6.874;2023-04-29T10:07:46;23.47;;;18.33;;
14858;SDS011;7521;51.700;6.874;2023-04-29T10:10:52;23.93;;;19.20;;
14858;SDS011;7521;51.700;6.874;2023-04-29T10:14:02;26.53;;;18.00;;
14858;SDS011;7521;51.700;6.874;2023-04-29T10:17:15;21.97;;;18.10;;
14858;SDS011;7521;51.700;6.874;2023-04-29T10:20:22;21.50;;;17.73;;
14858;SDS011;7521;51.700;6.874;2023-04-29T10:23:28;24.27;;;18.10;;
14858;SDS011;7521;51.700;6.874;2023-04-29T10:26:34;23.33;;;18.53;;
14858;SDS011;7521;51.700;6.874;2023-04-29T10:29:42;27.77;;;18.20;;
14858;SDS011;7521;51.700;6.874;2023-04-29T10:32:48;22.63;;;17.37;;
14858;SDS011;7521;51.700;6.874;2023-04-29T10:35:54;24.37;;;18.83;;
14858;SDS011;7521;51.700;6.874;2023-04-29T10:39:01;26.60;;;17.67;;
14858;SDS011;7521;51.700;6.874;2023-04-29T10:42:15;25.73;;;18.40;;
14858;SDS011;7521;51.700;6.874;2023-04-29T10:48:26;18.97;;;15.53;;
14858;SDS011;7521;51.700;6.874;2023-04-29T10:54:39;19.90;;;15.10;;
14858;SDS011;7521;51.700;6.874;2023-04-29T10:57:44;19.70;;;15.87;;
14858;SDS011;7521;51.700;6.874;2023-04-29T11:00:49;20.30;;;16.08;;
14858;SDS011;7521;51.700;6.874;2023-04-29T11:03:56;20.47;;;14.90;;
14858;SDS011;7521;51.700;6.874;2023-04-29T11:07:05;18.87;;;14.57;;
14858;SDS011;7521;51.700;6.874;2023-04-29T11:10:11;17.40;;;13.30;;
14858;SDS011;7521;51.700;6.874;2023-04-29T11:13:20;16.67;;;14.17;;
14858;SDS011;7521;51.700;6.874;2023-04-29T11:16:26;14.53;;;11.83;;
14858;SDS011;7521;51.700;6.874;2023-04-29T11:19:33;16.87;;;12.90;;
14858;SDS011;7521;51.700;6.874;2023-04-29T11:22:38;16.30;;;12.53;;
14858;SDS011;7521;51.700;6.874;2023-04-29T11:25:44;15.13;;;13.33;;
14858;SDS011;7521;51.700;6.874;2023-04-29T11:28:49;16.88;;;12.35;;
14858;SDS011;7521;51.700;6.874;2023-04-29T11:31:59;13.00;;;10.77;;
14858;SDS011;7521;51.700;6.874;2023-04-29T11:35:12;15.33;;;12.50;;
14858;SDS011;7521;51.700;6.874;2023-04-29T11:38:17;16.23;;;12.43;;
14858;SDS011;7521;51.700;6.874;2023-04-29T11:41:27;16.13;;;12.73;;
14858;SDS011;7521;51.700;6.874;2023-04-29T11:44:33;16.50;;;12.17;;
14858;SDS011;7521;51.700;6.874;2023-04-29T11:47:43;13.50;;;10.63;;
14858;SDS011;7521;51.700;6.874;2023-04-29T11:50:53;17.03;;;11.60;;
14858;SDS011;7521;51.700;6.874;2023-04-29T11:53:58;13.43;;;10.97;;
14858;SDS011;7521;51.700;6.874;2023-04-29T11:57:04;14.50;;;11.27;;
14858;SDS011;7521;51.700;6.874;2023-04-29T12:00:09;14.05;;;10.10;;
14858;SDS011;7521;51.700;6.874;2023-04-29T12:03:17;14.23;;;9.87;;
14858;SDS011;7521;51.700;6.874;2023-04-29T12:06:25;14.03;;;10.80;;
14858;SDS011;7521;51.700;6.874;2023-04-29T12:09:40;12.73;;;10.30;;
14858;SDS011;7521;51.700;6.874;2023-04-29T12:12:45;12.37;;;10.57;;
14858;SDS011;7521;51.700;6.874;2023-04-29T12:15:51;12.83;;;10.23;;
14858;SDS011;7521;51.700;6.874;2023-04-29T12:18:56;15.27;;;11.30;;
14858;SDS011;7521;51.700;6.874;2023-04-29T12:22:02;16.07;;;10.37;;
14858;SDS011;7521;51.700;6.874;2023-04-29T12:25:08;12.70;;;9.83;;
14858;SDS011;7521;51.700;6.874;2023-04-29T12:28:13;12.30;;;10.17;;
14858;SDS011;7521;51.700;6.874;2023-04-29T12:31:19;14.53;;;10.30;;
14858;SDS011;7521;51.700;6.874;2023-04-29T12:34:26;14.20;;;10.97;;
14858;SDS011;7521;51.700;6.874;2023-04-29T12:37:32;13.53;;;12.07;;
14858;SDS011;7521;51.700;6.874;2023-04-29T12:40:37;15.63;;;10.57;;
14858;SDS011;7521;51.700;6.874;2023-04-29T12:43:43;14.37;;;10.10;;
14858;SDS011;7521;51.700;6.874;2023-04-29T12:46:48;12.83;;;9.67;;
14858;SDS011;7521;51.700;6.874;2023-04-29T12:49:53;14.05;;;9.70;;
14858;SDS011;7521;51.700;6.874;2023-04-29T12:53:02;14.67;;;8.77;;
14858;SDS011;7521;51.700;6.874;2023-04-29T12:56:07;12.17;;;9.83;;
14858;SDS011;7521;51.700;6.874;2023-04-29T12:59:15;12.50;;;9.80;;
14858;SDS011;7521;51.700;6.874;2023-04-29T13:02:21;10.63;;;8.40;;
14858;SDS011;7521;51.700;6.874;2023-04-29T13:05:26;12.35;;;9.27;;
14858;SDS011;7521;51.700;6.874;2023-04-29T13:08:31;12.30;;;9.90;;
14858;SDS011;7521;51.700;6.874;2023-04-29T13:11:37;11.13;;;9.07;;
14858;SDS011;7521;51.700;6.874;2023-04-29T13:14:42;10.07;;;9.07;;
14858;SDS011;7521;51.700;6.874;2023-04-29T13:17:47;11.55;;;9.10;;
14858;SDS011;7521;51.700;6.874;2023-04-29T13:20:53;15.52;;;11.07;;
14858;SDS011;7521;51.700;6.874;2023-04-29T13:23:58;12.45;;;9.23;;
14858;SDS011;7521;51.700;6.874;2023-04-29T13:27:03;12.50;;;10.07;;
14858;SDS011;7521;51.700;6.874;2023-04-29T13:30:08;14.63;;;10.40;;
14858;SDS011;7521;51.700;6.874;2023-04-29T13:33:14;13.03;;;9.90;;
14858;SDS011;7521;51.700;6.874;2023-04-29T13:36:19;15.63;;;10.25;;
14858;SDS011;7521;51.700;6.874;2023-04-29T13:39:24;15.27;;;10.80;;
14858;SDS011;7521;51.700;6.874;2023-04-29T13:42:30;14.83;;;10.50;;
14858;SDS011;7521;51.700;6.874;2023-04-29T13:45:35;13.65;;;9.35;;
14858;SDS011;7521;51.700;6.874;2023-04-29T13:48:40;10.37;;;9.27;;
14858;SDS011;7521;51.700;6.874;2023-04-29T13:51:45;11.50;;;8.27;;
14858;SDS011;7521;51.700;6.874;2023-04-29T13:54:51;14.77;;;8.77;;
14858;SDS011;7521;51.700;6.874;2023-04-29T13:57:56;11.13;;;8.55;;
14858;SDS011;7521;51.700;6.874;2023-04-29T14:01:02;10.80;;;8.53;;
14858;SDS011;7521;51.700;6.874;2023-04-29T14:04:07;12.20;;;8.67;;
14858;SDS011;7521;51.700;6.874;2023-04-29T14:07:13;9.33;;;8.43;;
14858;SDS011;7521;51.700;6.874;2023-04-29T14:10:18;9.30;;;7.13;;
14858;SDS011;7521;51.700;6.874;2023-04-29T14:13:26;9.82;;;8.27;;
14858;SDS011;7521;51.700;6.874;2023-04-29T14:16:31;12.17;;;8.00;;
14858;SDS011;7521;51.700;6.874;2023-04-29T14:19:36;9.57;;;7.43;;
14858;SDS011;7521;51.700;6.874;2023-04-29T14:22:42;9.07;;;7.30;;
14858;SDS011;7521;51.700;6.874;2023-04-29T14:25:50;10.17;;;7.90;;
14858;SDS011;7521;51.700;6.874;2023-04-29T14:28:55;8.57;;;7.30;;
14858;SDS011;7521;51.700;6.874;2023-04-29T14:32:04;8.37;;;6.90;;
14858;SDS011;7521;51.700;6.874;2023-04-29T14:35:11;10.73;;;7.07;;
14858;SDS011;7521;51.700;6.874;2023-04-29T14:38:16;11.20;;;8.20;;
14858;SDS011;7521;51.700;6.874;2023-04-29T14:41:21;10.13;;;7.40;;
14858;SDS011;7521;51.700;6.874;2023-04-29T14:44:27;10.25;;;7.90;;
14858;SDS011;7521;51.700;6.874;2023-04-29T14:47:32;9.50;;;7.72;;
14858;SDS011;7521;51.700;6.874;2023-04-29T14:50:37;11.40;;;8.13;;
14858;SDS011;7521;51.700;6.874;2023-04-29T14:53:42;8.00;;;7.17;;
14858;SDS011;7521;51.700;6.874;2023-04-29T14:56:47;10.82;;;7.43;;
14858;SDS011;7521;51.700;6.874;2023-04-29T14:59:53;10.60;;;7.80;;
14858;SDS011;7521;51.700;6.874;2023-04-29T15:02:58;9.85;;;7.40;;
14858;SDS011;7521;51.700;6.874;2023-04-29T15:06:03;11.63;;;7.60;;
14858;SDS011;7521;51.700;6.874;2023-04-29T15:09:09;7.97;;;6.67;;
14858;SDS011;7521;51.700;6.874;2023-04-29T15:12:14;9.73;;;7.47;;
14858;SDS011;7521;51.700;6.874;2023-04-29T15:15:21;10.20;;;7.10;;
14858;SDS011;7521;51.700;6.874;2023-04-29T15:18:26;8.20;;;6.43;;
14858;SDS011;7521;51.700;6.874;2023-04-29T15:21:31;7.82;;;6.28;;
14858;SDS011;7521;51.700;6.874;2023-04-29T15:24:36;8.77;;;6.07;;
14858;SDS011;7521;51.700;6.874;2023-04-29T15:27:41;7.83;;;6.30;;
14858;SDS011;7521;51.700;6.874;2023-04-29T15:30:47;7.57;;;6.33;;
14858;SDS011;7521;51.700;6.874;2023-04-29T15:33:52;6.82;;;5.78;;
14858;SDS011;7521;51.700;6.874;2023-04-29T15:36:57;9.80;;;5.87;;
14858;SDS011;7521;51.700;6.874;2023-04-29T15:40:04;5.93;;;4.90;;
14858;SDS011;7521;51.700;6.874;2023-04-29T15:43:09;5.97;;;5.10;;
14858;SDS011;7521;51.700;6.874;2023-04-29T15:46:14;8.35;;;5.03;;
14858;SDS011;7521;51.700;6.874;2023-04-29T15:49:19;7.63;;;5.67;;
14858;SDS011;7521;51.700;6.874;2023-04-29T15:52:26;9.87;;;5.67;;
14858;SDS011;7521;51.700;6.874;2023-04-29T15:55:31;6.47;;;5.33;;
14858;SDS011;7521;51.700;6.874;2023-04-29T15:58:39;9.40;;;5.70;;
14858;SDS011;7521;51.700;6.874;2023-04-29T16:01:44;4.88;;;4.38;;
14858;SDS011;7521;51.700;6.874;2023-04-29T16:04:49;5.97;;;5.03;;
14858;SDS011;7521;51.700;6.874;2023-04-29T16:07:54;6.75;;;5.30;;
14858;SDS011;7521;51.700;6.874;2023-04-29T16:11:00;7.57;;;5.57;;
14858;SDS011;7521;51.700;6.874;2023-04-29T16:14:05;7.37;;;5.60;;
14858;SDS011;7521;51.700;6.874;2023-04-29T16:17:10;6.23;;;5.03;;
14858;SDS011;7521;51.700;6.874;2023-04-29T16:20:15;8.48;;;5.22;;
14858;SDS011;7521;51.700;6.874;2023-04-29T16:23:21;8.97;;;5.13;;
14858;SDS011;7521;51.700;6.874;2023-04-29T16:26:26;5.93;;;4.97;;
14858;SDS011;7521;51.700;6.874;2023-04-29T16:29:32;6.77;;;4.73;;
14858;SDS011;7521;51.700;6.874;2023-04-29T16:32:37;6.45;;;5.00;;
14858;SDS011;7521;51.700;6.874;2023-04-29T16:35:42;10.20;;;4.80;;
14858;SDS011;7521;51.700;6.874;2023-04-29T16:38:47;7.15;;;5.28;;
14858;SDS011;7521;51.700;6.874;2023-04-29T16:41:53;7.20;;;5.27;;
14858;SDS011;7521;51.700;6.874;2023-04-29T16:44:58;8.13;;;5.30;;
14858;SDS011;7521;51.700;6.874;2023-04-29T16:48:03;8.90;;;5.53;;
14858;SDS011;7521;51.700;6.874;2023-04-29T16:51:08;7.37;;;5.10;;
14858;SDS011;7521;51.700;6.874;2023-04-29T16:54:13;6.93;;;5.50;;
14858;SDS011;7521;51.700;6.874;2023-04-29T16:57:19;6.22;;;5.50;;
14858;SDS011;7521;51.700;6.874;2023-04-29T17:00:25;7.53;;;5.20;;
14858;SDS011;7521;51.700;6.874;2023-04-29T17:03:30;8.37;;;6.73;;
14858;SDS011;7521;51.700;6.874;2023-04-29T17:06:36;8.07;;;6.38;;
14858;SDS011;7521;51.700;6.874;2023-04-29T17:09:41;8.60;;;6.50;;
14858;SDS011;7521;51.700;6.874;2023-04-29T17:12:48;7.17;;;6.40;;
14858;SDS011;7521;51.700;6.874;2023-04-29T17:15:53;7.27;;;6.30;;
14858;SDS011;7521;51.700;6.874;2023-04-29T17:18:58;9.43;;;6.53;;
14858;SDS011;7521;51.700;6.874;2023-04-29T17:22:03;7.60;;;6.30;;
14858;SDS011;7521;51.700;6.874;2023-04-29T17:25:09;8.02;;;6.07;;
14858;SDS011;7521;51.700;6.874;2023-04-29T17:28:14;8.23;;;6.33;;
14858;SDS011;7521;51.700;6.874;2023-04-29T17:31:19;9.17;;;5.80;;
14858;SDS011;7521;51.700;6.874;2023-04-29T17:34:28;6.80;;;5.80;;
14858;SDS011;7521;51.700;6.874;2023-04-29T17:37:35;6.47;;;5.67;;
14858;SDS011;7521;51.700;6.874;2023-04-29T17:40:40;8.53;;;6.17;;
14858;SDS011;7521;51.700;6.874;2023-04-29T17:43:45;7.23;;;6.50;;
14858;SDS011;7521;51.700;6.874;2023-04-29T17:46:51;11.20;;;7.47;;
14858;SDS011;7521;51.700;6.874;2023-04-29T17:49:56;12.10;;;10.90;;
14858;SDS011;7521;51.700;6.874;2023-04-29T17:53:02;12.00;;;8.27;;
14858;SDS011;7521;51.700;6.874;2023-04-29T17:56:07;10.95;;;9.20;;
14858;SDS011;7521;51.700;6.874;2023-04-29T17:59:12;21.17;;;15.80;;
14858;SDS011;7521;51.700;6.874;2023-04-29T18:02:17;9.15;;;7.78;;
14858;SDS011;7521;51.700;6.874;2023-04-29T18:05:22;8.13;;;7.22;;
14858;SDS011;7521;51.700;6.874;2023-04-29T18:08:27;12.73;;;8.52;;
14858;SDS011;7521;51.700;6.874;2023-04-29T18:11:33;8.50;;;6.45;;
14858;SDS011;7521;51.700;6.874;2023-04-29T18:14:38;7.50;;;6.03;;
14858;SDS011;7521;51.700;6.874;2023-04-29T18:17:43;7.23;;;5.87;;
14858;SDS011;7521;51.700;6.874;2023-04-29T18:20:48;8.50;;;6.28;;
14858;SDS011;7521;51.700;6.874;2023-04-29T18:23:54;9.67;;;6.47;;
14858;SDS011;7521;51.700;6.874;2023-04-29T18:26:59;7.70;;;5.93;;
14858;SDS011;7521;51.700;6.874;2023-04-29T18:30:04;7.47;;;5.80;;
14858;SDS011;7521;51.700;6.874;2023-04-29T18:33:10;7.60;;;6.30;;
14858;SDS011;7521;51.700;6.874;2023-04-29T18:36:15;7.50;;;6.03;;
14858;SDS011;7521;51.700;6.874;2023-04-29T18:39:20;7.25;;;5.75;;
14858;SDS011;7521;51.700;6.874;2023-04-29T18:42:25;8.30;;;6.60;;
14858;SDS011;7521;51.700;6.874;2023-04-29T18:45:30;9.07;;;6.47;;
14858;SDS011;7521;51.700;6.874;2023-04-29T18:48:36;8.20;;;6.32;;
14858;SDS011;7521;51.700;6.874;2023-04-29T18:51:43;8.33;;;6.17;;